ESNSESNK

Guest
Details From ESNS - Skelleftea
To ESNK - Kramfors Solleftea
Flight Number -
Tags generated
Created
Modified
Stats Distance 129 nm / 239 km
Max Altitude 12,400 ft / 3,780 m
Waypoints 3
Social Downloads 0
Likes 0
Share VATSIM

Download

Looking for another format? Having issues loading an existing format? Contact us
Advertisement - Login to hide

Notes

Basic altitude profile: - Ascent Rate: 2500ft/min - Ascent Speed: 250kts - Cruise Altitude: 35000ft - Cruise Speed: 420kts - Descent Rate: 1500ft/min - Descent Speed: 250kts Options: - Use NATs: no - Use PACOTS: no - Use low airways: yes - Use high airways: no

Route

ESNS RASEN ESNK

ID Type Via Altitude Latitude Longitude Leg Dist Tot Dist Heading (true) Name
O ESNS APT - 0 ft / 0 m 64.62477˚ 21.07687˚ - 0 nm - Skelleftea
RASEN FIX - 12,400 ft / 3,780 m 63.81181˚ 19.09756˚ 71 nm 71 nm 228° / 226° -
O ESNK APT - 0 ft / 0 m 63.04860˚ 17.76885˚ 58 nm 129 nm 219° / 217° Kramfors Solleftea

Altitude Profile

Advertisement - Login to hide

ESNS

Details ICAO ESNS (SFT)
Name Skelleftea
Region Sweden
Timezone Europe/Stockholm (UTC+1.0)
Stats Elevation 155 ft / 47 m (AMSL)
Location 64.624772° 21.076867°
Runways 1
Magnetic Variation 8.558° E

METAR

ESNS 141720Z 16009KT 4000 -SN BKN008 BKN011 OVC031 00/M00 Q0990

Decode

TAF

Not found

Departure Runways

ID Width Length Bearing (true) Bearing (mag) Surface Threshold Offset Overrun Length
10 148 ft / 45 m 6,872 ft / 2,095 m 106.26° 97.70° Asphalt 0 ft / 0 m 0 ft / 0 m
28 148 ft / 45 m 6,872 ft / 2,095 m 286.30° 277.74° Asphalt 0 ft / 0 m 0 ft / 0 m

ESNK

Details ICAO ESNK (KRF)
Name Kramfors Solleftea
Region Sweden
Timezone Europe/Stockholm (UTC+1.0)
Stats Elevation 34 ft / 10 m (AMSL)
Location 63.048597° 17.768854°
Runways 1
Magnetic Variation 6.653° E

METAR

ESNK 141550Z 00000KT 2000 SNRA VV008 M03/M03 Q0987

Decode

TAF

Not found

Destination Runways

ID Width Length Bearing (true) Bearing (mag) Surface Threshold Offset Overrun Length
17 148 ft / 45 m 6,551 ft / 1,997 m 171.54° 164.89° Asphalt 0 ft / 0 m 0 ft / 0 m
35 148 ft / 45 m 6,551 ft / 1,997 m 351.55° 344.90° Asphalt 0 ft / 0 m 0 ft / 0 m

Approach Navaids

Runway Type Ident Frequency Range Bearing (true) Bearing (mag) Slope Elevation
17 Localiser FK 109.30 MHz 18 nm / 33 km 171.56° 164.91° - 34 ft / 10 m (AMSL)
35 Localiser NK 109.70 MHz 18 nm / 33 km 351.53° 344.88° - 34 ft / 10 m (AMSL)
35 Glidescope NK 109.70 MHz 10 nm / 19 km 351.54° 344.89° 3.25° 34 ft / 10 m (AMSL)